sensor_id;sensor_type;location;lat;lon;timestamp;P1;durP1;ratioP1;P2;durP2;ratioP2
45136;SDS011;30894;51.740;19.498;2024-03-02T00:02:00;50.15;;;16.80;;
45136;SDS011;30894;51.740;19.498;2024-03-02T00:04:27;44.50;;;16.73;;
45136;SDS011;30894;51.740;19.498;2024-03-02T00:06:53;44.53;;;16.80;;
45136;SDS011;30894;51.740;19.498;2024-03-02T00:09:22;45.03;;;17.60;;
45136;SDS011;30894;51.740;19.498;2024-03-02T00:11:49;43.30;;;16.98;;
45136;SDS011;30894;51.740;19.498;2024-03-02T00:14:19;39.83;;;15.80;;
45136;SDS011;30894;51.740;19.498;2024-03-02T00:16:46;40.45;;;17.25;;
45136;SDS011;30894;51.740;19.498;2024-03-02T00:19:12;38.45;;;14.93;;
45136;SDS011;30894;51.740;19.498;2024-03-02T00:21:49;40.97;;;16.23;;
45136;SDS011;30894;51.740;19.498;2024-03-02T00:24:34;47.10;;;18.13;;
45136;SDS011;30894;51.740;19.498;2024-03-02T00:27:03;44.03;;;17.42;;
45136;SDS011;30894;51.740;19.498;2024-03-02T00:29:31;37.65;;;16.27;;
45136;SDS011;30894;51.740;19.498;2024-03-02T00:31:57;41.67;;;16.05;;
45136;SDS011;30894;51.740;19.498;2024-03-02T00:34:23;36.45;;;15.52;;
45136;SDS011;30894;51.740;19.498;2024-03-02T00:36:50;46.55;;;16.67;;
45136;SDS011;30894;51.740;19.498;2024-03-02T00:39:17;34.47;;;14.07;;
45136;SDS011;30894;51.740;19.498;2024-03-02T00:41:45;41.92;;;16.30;;
45136;SDS011;30894;51.740;19.498;2024-03-02T00:44:15;37.83;;;16.60;;
45136;SDS011;30894;51.740;19.498;2024-03-02T00:46:41;42.35;;;16.30;;
45136;SDS011;30894;51.740;19.498;2024-03-02T00:51:48;39.97;;;16.27;;
45136;SDS011;30894;51.740;19.498;2024-03-02T00:54:22;44.45;;;17.33;;
45136;SDS011;30894;51.740;19.498;2024-03-02T00:56:54;34.78;;;15.23;;
45136;SDS011;30894;51.740;19.498;2024-03-02T00:59:22;35.08;;;15.27;;
45136;SDS011;30894;51.740;19.498;2024-03-02T01:01:55;40.38;;;17.30;;
45136;SDS011;30894;51.740;19.498;2024-03-02T01:04:24;38.63;;;16.23;;
45136;SDS011;30894;51.740;19.498;2024-03-02T01:06:50;45.55;;;17.10;;
45136;SDS011;30894;51.740;19.498;2024-03-02T01:09:18;41.33;;;16.20;;
45136;SDS011;30894;51.740;19.498;2024-03-02T01:11:51;37.33;;;15.97;;
45136;SDS011;30894;51.740;19.498;2024-03-02T01:14:18;31.55;;;14.05;;
45136;SDS011;30894;51.740;19.498;2024-03-02T01:16:49;27.20;;;11.73;;
45136;SDS011;30894;51.740;19.498;2024-03-02T01:19:17;35.28;;;14.07;;
45136;SDS011;30894;51.740;19.498;2024-03-02T01:21:44;33.03;;;14.10;;
45136;SDS011;30894;51.740;19.498;2024-03-02T01:24:10;34.17;;;15.70;;
45136;SDS011;30894;51.740;19.498;2024-03-02T01:26:36;40.25;;;16.55;;
45136;SDS011;30894;51.740;19.498;2024-03-02T01:29:05;35.63;;;15.57;;
45136;SDS011;30894;51.740;19.498;2024-03-02T01:31:31;32.05;;;13.85;;
45136;SDS011;30894;51.740;19.498;2024-03-02T01:33:58;31.73;;;14.48;;
45136;SDS011;30894;51.740;19.498;2024-03-02T01:36:26;35.03;;;15.27;;
45136;SDS011;30894;51.740;19.498;2024-03-02T01:38:56;35.63;;;14.75;;
45136;SDS011;30894;51.740;19.498;2024-03-02T01:41:23;33.63;;;14.45;;
45136;SDS011;30894;51.740;19.498;2024-03-02T01:43:50;39.78;;;16.38;;
45136;SDS011;30894;51.740;19.498;2024-03-02T01:46:20;32.33;;;15.02;;
45136;SDS011;30894;51.740;19.498;2024-03-02T01:48:47;34.50;;;15.98;;
45136;SDS011;30894;51.740;19.498;2024-03-02T01:51:14;33.65;;;15.43;;
45136;SDS011;30894;51.740;19.498;2024-03-02T01:53:49;34.78;;;14.48;;
45136;SDS011;30894;51.740;19.498;2024-03-02T01:56:18;33.10;;;14.48;;
45136;SDS011;30894;51.740;19.498;2024-03-02T01:58:50;37.63;;;14.82;;
45136;SDS011;30894;51.740;19.498;2024-03-02T02:01:16;27.98;;;13.43;;
45136;SDS011;30894;51.740;19.498;2024-03-02T02:03:52;29.77;;;13.88;;
45136;SDS011;30894;51.740;19.498;2024-03-02T02:06:20;40.83;;;16.92;;
45136;SDS011;30894;51.740;19.498;2024-03-02T02:08:48;37.22;;;14.95;;
45136;SDS011;30894;51.740;19.498;2024-03-02T02:11:15;37.55;;;14.88;;
45136;SDS011;30894;51.740;19.498;2024-03-02T02:13:43;40.10;;;15.55;;
45136;SDS011;30894;51.740;19.498;2024-03-02T02:16:09;38.72;;;15.45;;
45136;SDS011;30894;51.740;19.498;2024-03-02T02:18:36;40.63;;;15.25;;
45136;SDS011;30894;51.740;19.498;2024-03-02T02:21:03;30.45;;;13.52;;
45136;SDS011;30894;51.740;19.498;2024-03-02T02:23:35;38.47;;;15.48;;
45136;SDS011;30894;51.740;19.498;2024-03-02T02:26:04;30.58;;;13.43;;
45136;SDS011;30894;51.740;19.498;2024-03-02T02:28:34;33.85;;;15.35;;
45136;SDS011;30894;51.740;19.498;2024-03-02T02:31:01;36.65;;;14.57;;
45136;SDS011;30894;51.740;19.498;2024-03-02T02:33:39;32.80;;;14.48;;
45136;SDS011;30894;51.740;19.498;2024-03-02T02:36:06;31.17;;;14.15;;
45136;SDS011;30894;51.740;19.498;2024-03-02T02:38:39;32.08;;;13.88;;
45136;SDS011;30894;51.740;19.498;2024-03-02T02:41:09;29.40;;;13.98;;
45136;SDS011;30894;51.740;19.498;2024-03-02T02:43:38;31.60;;;13.40;;
45136;SDS011;30894;51.740;19.498;2024-03-02T02:46:06;28.65;;;13.75;;
45136;SDS011;30894;51.740;19.498;2024-03-02T02:48:35;36.50;;;13.63;;
45136;SDS011;30894;51.740;19.498;2024-03-02T02:51:01;35.05;;;14.05;;
45136;SDS011;30894;51.740;19.498;2024-03-02T02:53:28;31.85;;;14.05;;
45136;SDS011;30894;51.740;19.498;2024-03-02T02:55:54;28.95;;;13.40;;
45136;SDS011;30894;51.740;19.498;2024-03-02T02:58:20;31.90;;;13.75;;
45136;SDS011;30894;51.740;19.498;2024-03-02T03:00:53;32.25;;;13.38;;
45136;SDS011;30894;51.740;19.498;2024-03-02T03:03:25;32.67;;;13.82;;
45136;SDS011;30894;51.740;19.498;2024-03-02T03:05:55;26.58;;;11.88;;
45136;SDS011;30894;51.740;19.498;2024-03-02T03:08:25;29.45;;;13.30;;
45136;SDS011;30894;51.740;19.498;2024-03-02T03:10:51;31.67;;;13.48;;
45136;SDS011;30894;51.740;19.498;2024-03-02T03:13:20;30.80;;;13.32;;
45136;SDS011;30894;51.740;19.498;2024-03-02T03:15:46;24.95;;;11.85;;
45136;SDS011;30894;51.740;19.498;2024-03-02T03:18:14;33.95;;;13.57;;
45136;SDS011;30894;51.740;19.498;2024-03-02T03:20:41;32.60;;;13.60;;
45136;SDS011;30894;51.740;19.498;2024-03-02T03:23:08;33.33;;;14.00;;
45136;SDS011;30894;51.740;19.498;2024-03-02T03:25:36;31.40;;;13.40;;
45136;SDS011;30894;51.740;19.498;2024-03-02T03:28:03;31.60;;;13.38;;
45136;SDS011;30894;51.740;19.498;2024-03-02T03:30:30;31.27;;;13.85;;
45136;SDS011;30894;51.740;19.498;2024-03-02T03:32:57;29.20;;;12.70;;
45136;SDS011;30894;51.740;19.498;2024-03-02T03:35:26;27.75;;;13.18;;
45136;SDS011;30894;51.740;19.498;2024-03-02T03:37:53;28.95;;;12.02;;
45136;SDS011;30894;51.740;19.498;2024-03-02T03:40:26;30.45;;;12.88;;
45136;SDS011;30894;51.740;19.498;2024-03-02T03:42:53;28.17;;;13.02;;
45136;SDS011;30894;51.740;19.498;2024-03-02T03:45:21;32.50;;;13.52;;
45136;SDS011;30894;51.740;19.498;2024-03-02T03:47:51;30.45;;;14.25;;
45136;SDS011;30894;51.740;19.498;2024-03-02T03:50:18;32.83;;;13.18;;
45136;SDS011;30894;51.740;19.498;2024-03-02T03:52:45;41.83;;;13.35;;
45136;SDS011;30894;51.740;19.498;2024-03-02T03:55:11;31.33;;;13.38;;
45136;SDS011;30894;51.740;19.498;2024-03-02T03:57:40;33.25;;;14.63;;
45136;SDS011;30894;51.740;19.498;2024-03-02T04:00:06;32.92;;;13.80;;
45136;SDS011;30894;51.740;19.498;2024-03-02T04:02:37;30.58;;;12.95;;
45136;SDS011;30894;51.740;19.498;2024-03-02T04:05:06;28.27;;;12.57;;
45136;SDS011;30894;51.740;19.498;2024-03-02T04:07:46;27.30;;;12.50;;
45136;SDS011;30894;51.740;19.498;2024-03-02T04:10:11;30.27;;;13.25;;
45136;SDS011;30894;51.740;19.498;2024-03-02T04:12:41;34.22;;;13.88;;
45136;SDS011;30894;51.740;19.498;2024-03-02T04:15:09;27.15;;;13.05;;
45136;SDS011;30894;51.740;19.498;2024-03-02T04:17:35;30.02;;;12.73;;
45136;SDS011;30894;51.740;19.498;2024-03-02T04:20:02;27.38;;;12.63;;
45136;SDS011;30894;51.740;19.498;2024-03-02T04:22:35;29.50;;;12.95;;
45136;SDS011;30894;51.740;19.498;2024-03-02T04:25:06;24.90;;;12.70;;
45136;SDS011;30894;51.740;19.498;2024-03-02T04:27:35;26.80;;;12.02;;
45136;SDS011;30894;51.740;19.498;2024-03-02T04:30:02;29.25;;;12.90;;
45136;SDS011;30894;51.740;19.498;2024-03-02T04:32:36;27.83;;;12.77;;
45136;SDS011;30894;51.740;19.498;2024-03-02T04:35:05;28.60;;;12.77;;
45136;SDS011;30894;51.740;19.498;2024-03-02T04:37:38;30.25;;;12.88;;
45136;SDS011;30894;51.740;19.498;2024-03-02T04:40:08;27.23;;;13.23;;
45136;SDS011;30894;51.740;19.498;2024-03-02T04:42:34;29.13;;;13.77;;
45136;SDS011;30894;51.740;19.498;2024-03-02T04:45:02;31.02;;;12.85;;
45136;SDS011;30894;51.740;19.498;2024-03-02T04:47:32;33.78;;;13.05;;
45136;SDS011;30894;51.740;19.498;2024-03-02T04:50:00;29.02;;;12.45;;
45136;SDS011;30894;51.740;19.498;2024-03-02T04:52:29;27.15;;;12.35;;
45136;SDS011;30894;51.740;19.498;2024-03-02T04:54:56;31.73;;;13.10;;
45136;SDS011;30894;51.740;19.498;2024-03-02T04:57:43;25.08;;;12.02;;
45136;SDS011;30894;51.740;19.498;2024-03-02T05:00:10;28.10;;;12.13;;
45136;SDS011;30894;51.740;19.498;2024-03-02T05:02:38;25.98;;;12.32;;
45136;SDS011;30894;51.740;19.498;2024-03-02T05:05:18;31.85;;;12.48;;
45136;SDS011;30894;51.740;19.498;2024-03-02T05:07:48;34.28;;;13.05;;
45136;SDS011;30894;51.740;19.498;2024-03-02T05:10:15;29.05;;;12.55;;
45136;SDS011;30894;51.740;19.498;2024-03-02T05:12:44;23.85;;;11.55;;
45136;SDS011;30894;51.740;19.498;2024-03-02T05:15:11;29.05;;;13.52;;
45136;SDS011;30894;51.740;19.498;2024-03-02T05:17:40;29.17;;;13.55;;
45136;SDS011;30894;51.740;19.498;2024-03-02T05:20:11;31.92;;;14.93;;
45136;SDS011;30894;51.740;19.498;2024-03-02T05:22:37;27.15;;;13.50;;
45136;SDS011;30894;51.740;19.498;2024-03-02T05:25:03;30.60;;;12.27;;
45136;SDS011;30894;51.740;19.498;2024-03-02T05:27:31;30.42;;;13.02;;
45136;SDS011;30894;51.740;19.498;2024-03-02T05:29:59;25.75;;;12.25;;
45136;SDS011;30894;51.740;19.498;2024-03-02T05:32:33;28.45;;;12.85;;
45136;SDS011;30894;51.740;19.498;2024-03-02T05:34:59;26.33;;;12.45;;
45136;SDS011;30894;51.740;19.498;2024-03-02T05:37:26;28.50;;;12.10;;
45136;SDS011;30894;51.740;19.498;2024-03-02T05:39:54;30.45;;;13.43;;
45136;SDS011;30894;51.740;19.498;2024-03-02T05:42:21;30.55;;;11.75;;
45136;SDS011;30894;51.740;19.498;2024-03-02T05:44:47;29.35;;;12.75;;
45136;SDS011;30894;51.740;19.498;2024-03-02T05:47:16;27.13;;;12.60;;
45136;SDS011;30894;51.740;19.498;2024-03-02T05:49:43;27.83;;;11.80;;
45136;SDS011;30894;51.740;19.498;2024-03-02T05:52:13;28.50;;;12.35;;
45136;SDS011;30894;51.740;19.498;2024-03-02T05:54:39;30.15;;;12.45;;
45136;SDS011;30894;51.740;19.498;2024-03-02T05:57:07;24.77;;;11.25;;
45136;SDS011;30894;51.740;19.498;2024-03-02T05:59:54;27.55;;;12.23;;
45136;SDS011;30894;51.740;19.498;2024-03-02T06:02:20;32.63;;;12.85;;
45136;SDS011;30894;51.740;19.498;2024-03-02T06:04:49;27.48;;;12.35;;
45136;SDS011;30894;51.740;19.498;2024-03-02T06:07:15;28.85;;;12.18;;
45136;SDS011;30894;51.740;19.498;2024-03-02T06:09:42;23.30;;;10.88;;
45136;SDS011;30894;51.740;19.498;2024-03-02T06:12:13;28.48;;;11.88;;
45136;SDS011;30894;51.740;19.498;2024-03-02T06:14:43;33.20;;;12.85;;
45136;SDS011;30894;51.740;19.498;2024-03-02T06:17:12;27.10;;;12.55;;
45136;SDS011;30894;51.740;19.498;2024-03-02T06:19:39;30.85;;;12.82;;
45136;SDS011;30894;51.740;19.498;2024-03-02T06:22:06;31.40;;;13.00;;
45136;SDS011;30894;51.740;19.498;2024-03-02T06:24:35;32.22;;;12.65;;
45136;SDS011;30894;51.740;19.498;2024-03-02T06:27:06;28.42;;;12.43;;
45136;SDS011;30894;51.740;19.498;2024-03-02T06:29:34;30.95;;;12.45;;
45136;SDS011;30894;51.740;19.498;2024-03-02T06:32:01;27.95;;;12.38;;
45136;SDS011;30894;51.740;19.498;2024-03-02T06:34:28;29.73;;;12.95;;
45136;SDS011;30894;51.740;19.498;2024-03-02T06:36:56;31.25;;;12.48;;
45136;SDS011;30894;51.740;19.498;2024-03-02T06:39:23;19.25;;;8.32;;
45136;SDS011;30894;51.740;19.498;2024-03-02T06:41:51;30.95;;;12.95;;
45136;SDS011;30894;51.740;19.498;2024-03-02T06:44:19;27.13;;;12.38;;
45136;SDS011;30894;51.740;19.498;2024-03-02T06:46:45;29.92;;;12.80;;
45136;SDS011;30894;51.740;19.498;2024-03-02T06:49:14;34.65;;;15.07;;
45136;SDS011;30894;51.740;19.498;2024-03-02T06:51:43;42.85;;;15.27;;
45136;SDS011;30894;51.740;19.498;2024-03-02T06:54:10;39.40;;;16.33;;
45136;SDS011;30894;51.740;19.498;2024-03-02T06:56:36;36.30;;;13.88;;
45136;SDS011;30894;51.740;19.498;2024-03-02T06:59:10;30.95;;;12.75;;
45136;SDS011;30894;51.740;19.498;2024-03-02T07:01:37;21.88;;;9.20;;
45136;SDS011;30894;51.740;19.498;2024-03-02T07:04:03;37.20;;;15.75;;
45136;SDS011;30894;51.740;19.498;2024-03-02T07:06:31;32.42;;;13.52;;
45136;SDS011;30894;51.740;19.498;2024-03-02T07:09:01;27.63;;;13.43;;
45136;SDS011;30894;51.740;19.498;2024-03-02T07:11:27;34.30;;;14.77;;
45136;SDS011;30894;51.740;19.498;2024-03-02T07:13:53;29.88;;;12.90;;
45136;SDS011;30894;51.740;19.498;2024-03-02T07:16:23;37.05;;;13.65;;
45136;SDS011;30894;51.740;19.498;2024-03-02T07:19:16;31.67;;;14.38;;
45136;SDS011;30894;51.740;19.498;2024-03-02T07:21:50;30.63;;;13.57;;
45136;SDS011;30894;51.740;19.498;2024-03-02T07:24:22;32.92;;;13.43;;
45136;SDS011;30894;51.740;19.498;2024-03-02T07:26:53;34.63;;;13.88;;
45136;SDS011;30894;51.740;19.498;2024-03-02T07:29:20;36.05;;;14.98;;
45136;SDS011;30894;51.740;19.498;2024-03-02T07:32:09;35.83;;;14.95;;
45136;SDS011;30894;51.740;19.498;2024-03-02T07:34:40;36.20;;;15.05;;
45136;SDS011;30894;51.740;19.498;2024-03-02T07:37:08;39.35;;;14.93;;
45136;SDS011;30894;51.740;19.498;2024-03-02T07:39:36;33.53;;;14.18;;
45136;SDS011;30894;51.740;19.498;2024-03-02T07:42:04;27.58;;;13.30;;
45136;SDS011;30894;51.740;19.498;2024-03-02T07:44:31;27.10;;;11.75;;
45136;SDS011;30894;51.740;19.498;2024-03-02T07:46:57;29.73;;;13.32;;
45136;SDS011;30894;51.740;19.498;2024-03-02T07:49:24;32.03;;;12.85;;
45136;SDS011;30894;51.740;19.498;2024-03-02T07:51:51;36.97;;;14.43;;
45136;SDS011;30894;51.740;19.498;2024-03-02T07:54:17;33.50;;;14.48;;
45136;SDS011;30894;51.740;19.498;2024-03-02T07:56:46;33.13;;;14.50;;
45136;SDS011;30894;51.740;19.498;2024-03-02T07:59:13;31.92;;;14.02;;
45136;SDS011;30894;51.740;19.498;2024-03-02T08:01:45;32.40;;;12.77;;
45136;SDS011;30894;51.740;19.498;2024-03-02T08:04:12;35.95;;;15.30;;
45136;SDS011;30894;51.740;19.498;2024-03-02T08:06:39;33.83;;;15.05;;
45136;SDS011;30894;51.740;19.498;2024-03-02T08:09:05;36.65;;;15.73;;
45136;SDS011;30894;51.740;19.498;2024-03-02T08:11:41;33.92;;;14.50;;
45136;SDS011;30894;51.740;19.498;2024-03-02T08:17:02;31.55;;;13.50;;
45136;SDS011;30894;51.740;19.498;2024-03-02T08:19:37;33.17;;;13.88;;
45136;SDS011;30894;51.740;19.498;2024-03-02T08:22:06;35.42;;;14.63;;
45136;SDS011;30894;51.740;19.498;2024-03-02T08:24:45;30.90;;;13.25;;
45136;SDS011;30894;51.740;19.498;2024-03-02T08:27:14;34.60;;;14.50;;
45136;SDS011;30894;51.740;19.498;2024-03-02T08:29:47;36.70;;;13.63;;
45136;SDS011;30894;51.740;19.498;2024-03-02T08:32:18;29.85;;;12.05;;
45136;SDS011;30894;51.740;19.498;2024-03-02T08:34:45;30.15;;;12.90;;
45136;SDS011;30894;51.740;19.498;2024-03-02T08:37:13;35.53;;;14.25;;
45136;SDS011;30894;51.740;19.498;2024-03-02T08:39:40;29.65;;;13.73;;
45136;SDS011;30894;51.740;19.498;2024-03-02T08:42:17;29.35;;;13.25;;
45136;SDS011;30894;51.740;19.498;2024-03-02T08:44:45;26.67;;;13.05;;
45136;SDS011;30894;51.740;19.498;2024-03-02T08:47:44;25.25;;;12.25;;
45136;SDS011;30894;51.740;19.498;2024-03-02T08:50:10;30.77;;;12.98;;
45136;SDS011;30894;51.740;19.498;2024-03-02T08:52:36;27.60;;;12.18;;
45136;SDS011;30894;51.740;19.498;2024-03-02T08:55:05;33.67;;;14.05;;
45136;SDS011;30894;51.740;19.498;2024-03-02T08:57:32;36.00;;;15.07;;
45136;SDS011;30894;51.740;19.498;2024-03-02T09:00:06;35.58;;;14.82;;
45136;SDS011;30894;51.740;19.498;2024-03-02T09:02:47;34.50;;;14.55;;
45136;SDS011;30894;51.740;19.498;2024-03-02T09:05:51;29.67;;;13.15;;
45136;SDS011;30894;51.740;19.498;2024-03-02T09:08:17;36.30;;;14.32;;
45136;SDS011;30894;51.740;19.498;2024-03-02T09:10:44;35.85;;;14.90;;
45136;SDS011;30894;51.740;19.498;2024-03-02T09:13:10;32.53;;;13.55;;
45136;SDS011;30894;51.740;19.498;2024-03-02T09:15:38;29.65;;;13.18;;
45136;SDS011;30894;51.740;19.498;2024-03-02T09:18:05;34.58;;;13.75;;
45136;SDS011;30894;51.740;19.498;2024-03-02T09:20:32;27.80;;;13.40;;
45136;SDS011;30894;51.740;19.498;2024-03-02T09:23:01;30.25;;;13.27;;
45136;SDS011;30894;51.740;19.498;2024-03-02T09:25:28;31.33;;;13.27;;
45136;SDS011;30894;51.740;19.498;2024-03-02T09:27:58;36.78;;;15.02;;
45136;SDS011;30894;51.740;19.498;2024-03-02T09:30:29;32.15;;;13.52;;
45136;SDS011;30894;51.740;19.498;2024-03-02T09:32:55;34.78;;;14.68;;
45136;SDS011;30894;51.740;19.498;2024-03-02T09:35:28;36.00;;;13.27;;
45136;SDS011;30894;51.740;19.498;2024-03-02T09:37:56;29.70;;;13.60;;
45136;SDS011;30894;51.740;19.498;2024-03-02T09:40:22;25.73;;;12.13;;
45136;SDS011;30894;51.740;19.498;2024-03-02T09:42:55;29.23;;;13.33;;
45136;SDS011;30894;51.740;19.498;2024-03-02T09:48:05;36.00;;;13.88;;
45136;SDS011;30894;51.740;19.498;2024-03-02T09:50:35;35.75;;;13.05;;
45136;SDS011;30894;51.740;19.498;2024-03-02T09:53:01;23.95;;;11.85;;
45136;SDS011;30894;51.740;19.498;2024-03-02T09:55:31;32.78;;;13.73;;
45136;SDS011;30894;51.740;19.498;2024-03-02T09:57:58;25.80;;;10.80;;
45136;SDS011;30894;51.740;19.498;2024-03-02T10:00:25;30.50;;;12.07;;
45136;SDS011;30894;51.740;19.498;2024-03-02T10:02:52;27.23;;;13.25;;
45136;SDS011;30894;51.740;19.498;2024-03-02T10:05:26;35.97;;;13.38;;
45136;SDS011;30894;51.740;19.498;2024-03-02T10:08:01;25.48;;;10.93;;
45136;SDS011;30894;51.740;19.498;2024-03-02T10:10:39;28.50;;;12.10;;
45136;SDS011;30894;51.740;19.498;2024-03-02T10:13:13;28.58;;;13.38;;
45136;SDS011;30894;51.740;19.498;2024-03-02T10:15:44;26.90;;;12.50;;
45136;SDS011;30894;51.740;19.498;2024-03-02T10:18:10;33.83;;;13.68;;
45136;SDS011;30894;51.740;19.498;2024-03-02T10:20:38;33.17;;;13.70;;
45136;SDS011;30894;51.740;19.498;2024-03-02T10:23:12;33.13;;;13.73;;
45136;SDS011;30894;51.740;19.498;2024-03-02T10:25:51;31.10;;;13.48;;
45136;SDS011;30894;51.740;19.498;2024-03-02T10:28:17;29.20;;;13.13;;
45136;SDS011;30894;51.740;19.498;2024-03-02T10:30:44;30.17;;;13.45;;
45136;SDS011;30894;51.740;19.498;2024-03-02T10:33:17;33.53;;;14.43;;
45136;SDS011;30894;51.740;19.498;2024-03-02T10:35:45;29.92;;;13.25;;
45136;SDS011;30894;51.740;19.498;2024-03-02T10:38:11;25.10;;;11.95;;
45136;SDS011;30894;51.740;19.498;2024-03-02T10:40:43;29.85;;;14.02;;
45136;SDS011;30894;51.740;19.498;2024-03-02T10:43:17;23.33;;;10.80;;
45136;SDS011;30894;51.740;19.498;2024-03-02T10:45:48;30.65;;;13.18;;
45136;SDS011;30894;51.740;19.498;2024-03-02T10:48:19;35.40;;;14.23;;
45136;SDS011;30894;51.740;19.498;2024-03-02T10:50:50;30.73;;;12.80;;
45136;SDS011;30894;51.740;19.498;2024-03-02T10:53:22;31.30;;;13.82;;
45136;SDS011;30894;51.740;19.498;2024-03-02T10:55:49;34.40;;;14.30;;
45136;SDS011;30894;51.740;19.498;2024-03-02T10:58:30;32.42;;;14.90;;
45136;SDS011;30894;51.740;19.498;2024-03-02T11:01:00;34.67;;;12.95;;
45136;SDS011;30894;51.740;19.498;2024-03-02T11:03:33;36.40;;;14.90;;
45136;SDS011;30894;51.740;19.498;2024-03-02T11:06:07;37.40;;;15.10;;
45136;SDS011;30894;51.740;19.498;2024-03-02T11:08:39;31.40;;;14.60;;
45136;SDS011;30894;51.740;19.498;2024-03-02T11:11:14;27.85;;;12.85;;
45136;SDS011;30894;51.740;19.498;2024-03-02T11:13:49;29.85;;;11.65;;
45136;SDS011;30894;51.740;19.498;2024-03-02T11:16:26;35.00;;;13.43;;
45136;SDS011;30894;51.740;19.498;2024-03-02T11:19:04;32.15;;;14.52;;
45136;SDS011;30894;51.740;19.498;2024-03-02T11:21:33;37.22;;;14.57;;
45136;SDS011;30894;51.740;19.498;2024-03-02T11:26:49;34.20;;;13.93;;
45136;SDS011;30894;51.740;19.498;2024-03-02T11:32:19;37.08;;;15.10;;
45136;SDS011;30894;51.740;19.498;2024-03-02T11:34:49;37.67;;;14.80;;
45136;SDS011;30894;51.740;19.498;2024-03-02T11:37:16;28.13;;;12.15;;
45136;SDS011;30894;51.740;19.498;2024-03-02T11:39:51;30.55;;;14.13;;
45136;SDS011;30894;51.740;19.498;2024-03-02T11:42:18;40.65;;;13.70;;
45136;SDS011;30894;51.740;19.498;2024-03-02T11:44:45;32.72;;;12.85;;
45136;SDS011;30894;51.740;19.498;2024-03-02T11:47:15;33.58;;;15.60;;
45136;SDS011;30894;51.740;19.498;2024-03-02T11:49:50;38.75;;;14.35;;
45136;SDS011;30894;51.740;19.498;2024-03-02T11:52:18;32.83;;;13.60;;
45136;SDS011;30894;51.740;19.498;2024-03-02T11:54:45;33.53;;;14.65;;
45136;SDS011;30894;51.740;19.498;2024-03-02T11:57:20;32.33;;;14.00;;
45136;SDS011;30894;51.740;19.498;2024-03-02T11:59:54;35.45;;;15.18;;
45136;SDS011;30894;51.740;19.498;2024-03-02T12:02:25;36.22;;;14.70;;
45136;SDS011;30894;51.740;19.498;2024-03-02T12:04:51;38.08;;;13.30;;
45136;SDS011;30894;51.740;19.498;2024-03-02T12:07:18;30.77;;;12.63;;
45136;SDS011;30894;51.740;19.498;2024-03-02T12:09:49;39.00;;;15.30;;
45136;SDS011;30894;51.740;19.498;2024-03-02T12:12:29;39.88;;;15.32;;
45136;SDS011;30894;51.740;19.498;2024-03-02T12:14:55;37.60;;;14.13;;
45136;SDS011;30894;51.740;19.498;2024-03-02T12:17:22;40.45;;;14.73;;
45136;SDS011;30894;51.740;19.498;2024-03-02T12:19:50;31.40;;;12.48;;
45136;SDS011;30894;51.740;19.498;2024-03-02T12:22:17;32.08;;;13.40;;
45136;SDS011;30894;51.740;19.498;2024-03-02T12:24:46;33.20;;;13.43;;
45136;SDS011;30894;51.740;19.498;2024-03-02T12:27:14;34.70;;;12.20;;
45136;SDS011;30894;51.740;19.498;2024-03-02T12:29:41;33.55;;;14.30;;
45136;SDS011;30894;51.740;19.498;2024-03-02T12:32:16;37.15;;;15.23;;
45136;SDS011;30894;51.740;19.498;2024-03-02T12:34:46;36.38;;;15.30;;
45136;SDS011;30894;51.740;19.498;2024-03-02T12:37:13;34.05;;;13.40;;
45136;SDS011;30894;51.740;19.498;2024-03-02T12:39:40;34.08;;;14.32;;
45136;SDS011;30894;51.740;19.498;2024-03-02T12:42:15;44.78;;;16.00;;
45136;SDS011;30894;51.740;19.498;2024-03-02T12:44:41;36.63;;;14.98;;
45136;SDS011;30894;51.740;19.498;2024-03-02T12:47:07;39.40;;;15.32;;
45136;SDS011;30894;51.740;19.498;2024-03-02T12:49:33;19.98;;;9.05;;
45136;SDS011;30894;51.740;19.498;2024-03-02T12:52:01;33.80;;;14.98;;
45136;SDS011;30894;51.740;19.498;2024-03-02T12:54:28;40.80;;;15.10;;
45136;SDS011;30894;51.740;19.498;2024-03-02T12:56:56;37.60;;;15.60;;
45136;SDS011;30894;51.740;19.498;2024-03-02T12:59:23;37.50;;;15.90;;
45136;SDS011;30894;51.740;19.498;2024-03-02T13:01:55;37.33;;;15.43;;
45136;SDS011;30894;51.740;19.498;2024-03-02T13:04:27;34.08;;;14.45;;
45136;SDS011;30894;51.740;19.498;2024-03-02T13:06:55;32.35;;;13.85;;
45136;SDS011;30894;51.740;19.498;2024-03-02T13:09:23;39.20;;;14.52;;
45136;SDS011;30894;51.740;19.498;2024-03-02T13:11:49;39.33;;;15.02;;
45136;SDS011;30894;51.740;19.498;2024-03-02T13:14:16;36.13;;;16.00;;
45136;SDS011;30894;51.740;19.498;2024-03-02T13:16:50;38.47;;;15.43;;
45136;SDS011;30894;51.740;19.498;2024-03-02T13:19:18;34.22;;;15.15;;
45136;SDS011;30894;51.740;19.498;2024-03-02T13:21:46;33.47;;;14.55;;
45136;SDS011;30894;51.740;19.498;2024-03-02T13:24:12;32.70;;;13.18;;
45136;SDS011;30894;51.740;19.498;2024-03-02T13:26:39;37.25;;;15.85;;
45136;SDS011;30894;51.740;19.498;2024-03-02T13:29:09;37.30;;;16.45;;
45136;SDS011;30894;51.740;19.498;2024-03-02T13:31:40;40.05;;;15.82;;
45136;SDS011;30894;51.740;19.498;2024-03-02T13:34:06;40.50;;;16.10;;
45136;SDS011;30894;51.740;19.498;2024-03-02T13:36:33;40.70;;;15.15;;
45136;SDS011;30894;51.740;19.498;2024-03-02T13:39:04;35.83;;;15.57;;
45136;SDS011;30894;51.740;19.498;2024-03-02T13:41:32;38.28;;;16.15;;
45136;SDS011;30894;51.740;19.498;2024-03-02T13:43:58;40.25;;;15.63;;
45136;SDS011;30894;51.740;19.498;2024-03-02T13:46:27;40.25;;;15.50;;
45136;SDS011;30894;51.740;19.498;2024-03-02T13:48:54;43.92;;;16.17;;
45136;SDS011;30894;51.740;19.498;2024-03-02T13:51:22;43.58;;;16.02;;
45136;SDS011;30894;51.740;19.498;2024-03-02T13:53:50;38.67;;;15.45;;
45136;SDS011;30894;51.740;19.498;2024-03-02T13:56:22;39.20;;;15.25;;
45136;SDS011;30894;51.740;19.498;2024-03-02T13:58:49;41.92;;;16.17;;
45136;SDS011;30894;51.740;19.498;2024-03-02T14:01:18;41.50;;;15.77;;
45136;SDS011;30894;51.740;19.498;2024-03-02T14:03:54;40.08;;;16.15;;
45136;SDS011;30894;51.740;19.498;2024-03-02T14:06:23;35.58;;;16.20;;
45136;SDS011;30894;51.740;19.498;2024-03-02T14:08:52;40.50;;;16.15;;
45136;SDS011;30894;51.740;19.498;2024-03-02T14:11:22;47.20;;;16.83;;
45136;SDS011;30894;51.740;19.498;2024-03-02T14:13:49;39.72;;;15.27;;
45136;SDS011;30894;51.740;19.498;2024-03-02T14:16:20;48.80;;;18.25;;
45136;SDS011;30894;51.740;19.498;2024-03-02T14:18:50;45.72;;;17.90;;
45136;SDS011;30894;51.740;19.498;2024-03-02T14:21:16;50.08;;;15.95;;
45136;SDS011;30894;51.740;19.498;2024-03-02T14:23:43;45.22;;;19.10;;
45136;SDS011;30894;51.740;19.498;2024-03-02T14:26:10;38.63;;;16.85;;
45136;SDS011;30894;51.740;19.498;2024-03-02T14:28:36;33.67;;;12.77;;
45136;SDS011;30894;51.740;19.498;2024-03-02T14:31:03;42.58;;;17.20;;
45136;SDS011;30894;51.740;19.498;2024-03-02T14:33:33;35.85;;;15.20;;
45136;SDS011;30894;51.740;19.498;2024-03-02T14:36:03;45.08;;;17.05;;